sensor_id;sensor_type;location;lat;lon;timestamp;pressure;altitude;pressure_sealevel;temperature;humidity
48652;BME280;34442;52.362;-1.302;2023-06-04T00:02:02;101192.38;;;12.33;100.00
48652;BME280;34442;52.362;-1.302;2023-06-04T00:04:28;101186.59;;;12.36;100.00
48652;BME280;34442;52.362;-1.302;2023-06-04T00:06:54;101182.69;;;12.39;100.00
48652;BME280;34442;52.362;-1.302;2023-06-04T00:09:19;101194.69;;;12.36;100.00
48652;BME280;34442;52.362;-1.302;2023-06-04T00:11:45;101193.03;;;12.35;100.00
48652;BME280;34442;52.362;-1.302;2023-06-04T00:14:13;101197.16;;;12.31;100.00
48652;BME280;34442;52.362;-1.302;2023-06-04T00:16:39;101195.88;;;12.27;100.00
48652;BME280;34442;52.362;-1.302;2023-06-04T00:19:06;101193.81;;;12.29;100.00
48652;BME280;34442;52.362;-1.302;2023-06-04T00:21:31;101187.00;;;12.05;100.00
48652;BME280;34442;52.362;-1.302;2023-06-04T00:23:57;101183.25;;;12.00;100.00
48652;BME280;34442;52.362;-1.302;2023-06-04T00:26:23;101188.19;;;11.96;100.00
48652;BME280;34442;52.362;-1.302;2023-06-04T00:28:48;101190.72;;;12.04;100.00
48652;BME280;34442;52.362;-1.302;2023-06-04T00:31:14;101183.75;;;11.88;100.00
48652;BME280;34442;52.362;-1.302;2023-06-04T00:33:41;101174.72;;;11.96;100.00
48652;BME280;34442;52.362;-1.302;2023-06-04T00:36:07;101192.16;;;11.79;100.00
48652;BME280;34442;52.362;-1.302;2023-06-04T00:38:32;101189.47;;;11.79;100.00
48652;BME280;34442;52.362;-1.302;2023-06-04T00:40:58;101197.00;;;11.83;100.00
48652;BME280;34442;52.362;-1.302;2023-06-04T00:43:24;101193.91;;;11.86;100.00
48652;BME280;34442;52.362;-1.302;2023-06-04T00:45:53;101197.75;;;11.77;100.00
48652;BME280;34442;52.362;-1.302;2023-06-04T00:48:19;101205.19;;;11.75;100.00
48652;BME280;34442;52.362;-1.302;2023-06-04T00:50:47;101193.19;;;11.78;100.00
48652;BME280;34442;52.362;-1.302;2023-06-04T00:53:12;101192.69;;;11.67;100.00
48652;BME280;34442;52.362;-1.302;2023-06-04T00:55:38;101190.66;;;11.70;100.00
48652;BME280;34442;52.362;-1.302;2023-06-04T00:58:03;101194.16;;;11.70;100.00
48652;BME280;34442;52.362;-1.302;2023-06-04T01:00:30;101190.25;;;11.73;100.00
48652;BME280;34442;52.362;-1.302;2023-06-04T01:02:57;101190.09;;;11.81;100.00
48652;BME280;34442;52.362;-1.302;2023-06-04T01:05:39;101206.34;;;11.66;100.00
48652;BME280;34442;52.362;-1.302;2023-06-04T01:08:06;101199.09;;;11.66;100.00
48652;BME280;34442;52.362;-1.302;2023-06-04T01:10:34;101203.00;;;11.64;100.00
48652;BME280;34442;52.362;-1.302;2023-06-04T01:13:00;101195.72;;;11.58;100.00
48652;BME280;34442;52.362;-1.302;2023-06-04T01:15:25;101193.47;;;11.61;100.00
48652;BME280;34442;52.362;-1.302;2023-06-04T01:17:57;101200.44;;;11.56;100.00
48652;BME280;34442;52.362;-1.302;2023-06-04T01:20:42;101201.41;;;11.70;100.00
48652;BME280;34442;52.362;-1.302;2023-06-04T01:23:37;101195.34;;;11.61;100.00
48652;BME280;34442;52.362;-1.302;2023-06-04T01:26:09;101194.88;;;11.57;100.00
48652;BME280;34442;52.362;-1.302;2023-06-04T01:28:36;101192.38;;;11.56;100.00
48652;BME280;34442;52.362;-1.302;2023-06-04T01:31:03;101192.81;;;11.59;100.00
48652;BME280;34442;52.362;-1.302;2023-06-04T01:33:30;101199.00;;;11.53;100.00
48652;BME280;34442;52.362;-1.302;2023-06-04T01:35:55;101196.41;;;11.66;100.00
48652;BME280;34442;52.362;-1.302;2023-06-04T01:38:21;101198.47;;;11.64;100.00
48652;BME280;34442;52.362;-1.302;2023-06-04T01:40:47;101199.22;;;11.58;100.00
48652;BME280;34442;52.362;-1.302;2023-06-04T01:43:13;101195.63;;;11.51;100.00
48652;BME280;34442;52.362;-1.302;2023-06-04T01:45:38;101197.88;;;11.48;100.00
48652;BME280;34442;52.362;-1.302;2023-06-04T01:48:05;101201.56;;;11.40;100.00
48652;BME280;34442;52.362;-1.302;2023-06-04T01:50:31;101206.09;;;11.39;100.00
48652;BME280;34442;52.362;-1.302;2023-06-04T01:52:56;101207.69;;;11.34;100.00
48652;BME280;34442;52.362;-1.302;2023-06-04T01:55:22;101208.78;;;11.39;100.00
48652;BME280;34442;52.362;-1.302;2023-06-04T01:57:50;101211.16;;;11.28;100.00
48652;BME280;34442;52.362;-1.302;2023-06-04T02:00:16;101207.56;;;11.42;100.00
48652;BME280;34442;52.362;-1.302;2023-06-04T02:02:43;101212.56;;;11.45;100.00
48652;BME280;34442;52.362;-1.302;2023-06-04T02:05:11;101214.69;;;11.50;100.00
48652;BME280;34442;52.362;-1.302;2023-06-04T02:07:43;101211.75;;;11.66;100.00
48652;BME280;34442;52.362;-1.302;2023-06-04T02:10:11;101209.63;;;11.61;100.00
48652;BME280;34442;52.362;-1.302;2023-06-04T02:12:39;101205.66;;;11.57;100.00
48652;BME280;34442;52.362;-1.302;2023-06-04T02:15:05;101201.72;;;11.38;100.00
48652;BME280;34442;52.362;-1.302;2023-06-04T02:17:30;101209.56;;;11.55;100.00
48652;BME280;34442;52.362;-1.302;2023-06-04T02:20:03;101215.06;;;11.47;100.00
48652;BME280;34442;52.362;-1.302;2023-06-04T02:22:34;101202.25;;;11.49;100.00
48652;BME280;34442;52.362;-1.302;2023-06-04T02:25:00;101206.28;;;11.59;100.00
48652;BME280;34442;52.362;-1.302;2023-06-04T02:27:25;101214.81;;;11.63;100.00
48652;BME280;34442;52.362;-1.302;2023-06-04T02:29:51;101197.63;;;11.42;100.00
48652;BME280;34442;52.362;-1.302;2023-06-04T02:32:16;101204.75;;;11.50;100.00
48652;BME280;34442;52.362;-1.302;2023-06-04T02:34:42;101199.94;;;11.46;100.00
48652;BME280;34442;52.362;-1.302;2023-06-04T02:37:07;101203.91;;;11.50;100.00
48652;BME280;34442;52.362;-1.302;2023-06-04T02:39:33;101210.13;;;11.29;100.00
48652;BME280;34442;52.362;-1.302;2023-06-04T02:41:58;101195.31;;;11.39;100.00
48652;BME280;34442;52.362;-1.302;2023-06-04T02:44:24;101196.47;;;11.30;100.00
48652;BME280;34442;52.362;-1.302;2023-06-04T02:46:49;101198.13;;;11.31;100.00
48652;BME280;34442;52.362;-1.302;2023-06-04T02:49:14;101198.00;;;11.39;100.00
48652;BME280;34442;52.362;-1.302;2023-06-04T02:51:42;101199.81;;;11.54;100.00
48652;BME280;34442;52.362;-1.302;2023-06-04T02:54:07;101196.66;;;11.50;100.00
48652;BME280;34442;52.362;-1.302;2023-06-04T02:56:33;101192.13;;;11.51;100.00
48652;BME280;34442;52.362;-1.302;2023-06-04T02:58:59;101194.31;;;11.40;100.00
48652;BME280;34442;52.362;-1.302;2023-06-04T03:01:25;101199.28;;;11.43;100.00
48652;BME280;34442;52.362;-1.302;2023-06-04T03:03:52;101193.78;;;11.52;100.00
48652;BME280;34442;52.362;-1.302;2023-06-04T03:06:19;101199.28;;;11.43;100.00
48652;BME280;34442;52.362;-1.302;2023-06-04T03:08:51;101198.19;;;11.16;100.00
48652;BME280;34442;52.362;-1.302;2023-06-04T03:11:17;101201.50;;;11.18;100.00
48652;BME280;34442;52.362;-1.302;2023-06-04T03:13:44;101190.34;;;11.36;100.00
48652;BME280;34442;52.362;-1.302;2023-06-04T03:16:10;101194.75;;;11.44;100.00
48652;BME280;34442;52.362;-1.302;2023-06-04T03:18:36;101194.56;;;11.46;100.00
48652;BME280;34442;52.362;-1.302;2023-06-04T03:21:02;101199.41;;;11.35;100.00
48652;BME280;34442;52.362;-1.302;2023-06-04T03:23:28;101197.63;;;11.21;100.00
48652;BME280;34442;52.362;-1.302;2023-06-04T03:25:54;101192.28;;;11.06;100.00
48652;BME280;34442;52.362;-1.302;2023-06-04T03:28:19;101189.78;;;11.26;100.00
48652;BME280;34442;52.362;-1.302;2023-06-04T03:30:45;101191.16;;;11.37;100.00
48652;BME280;34442;52.362;-1.302;2023-06-04T03:33:10;101191.09;;;11.52;100.00
48652;BME280;34442;52.362;-1.302;2023-06-04T03:35:35;101190.94;;;11.60;100.00
48652;BME280;34442;52.362;-1.302;2023-06-04T03:38:01;101187.44;;;11.59;100.00
48652;BME280;34442;52.362;-1.302;2023-06-04T03:40:26;101188.78;;;11.49;100.00
48652;BME280;34442;52.362;-1.302;2023-06-04T03:42:52;101189.25;;;11.52;100.00
48652;BME280;34442;52.362;-1.302;2023-06-04T03:45:17;101184.41;;;11.48;100.00
48652;BME280;34442;52.362;-1.302;2023-06-04T03:47:42;101190.59;;;11.41;100.00
48652;BME280;34442;52.362;-1.302;2023-06-04T03:50:08;101184.75;;;11.38;100.00
48652;BME280;34442;52.362;-1.302;2023-06-04T03:52:35;101191.09;;;11.30;100.00
48652;BME280;34442;52.362;-1.302;2023-06-04T03:55:00;101192.75;;;11.31;100.00
48652;BME280;34442;52.362;-1.302;2023-06-04T03:57:26;101191.47;;;11.27;100.00
48652;BME280;34442;52.362;-1.302;2023-06-04T03:59:52;101194.44;;;11.32;100.00
48652;BME280;34442;52.362;-1.302;2023-06-04T04:02:17;101197.28;;;11.31;100.00
48652;BME280;34442;52.362;-1.302;2023-06-04T04:04:45;101191.34;;;11.35;100.00
48652;BME280;34442;52.362;-1.302;2023-06-04T04:07:11;101186.06;;;11.27;100.00
48652;BME280;34442;52.362;-1.302;2023-06-04T04:09:37;101188.06;;;11.18;100.00
48652;BME280;34442;52.362;-1.302;2023-06-04T04:12:03;101197.38;;;11.16;100.00
48652;BME280;34442;52.362;-1.302;2023-06-04T04:14:29;101202.53;;;11.17;100.00
48652;BME280;34442;52.362;-1.302;2023-06-04T04:16:54;101203.91;;;11.28;100.00
48652;BME280;34442;52.362;-1.302;2023-06-04T04:19:20;101203.34;;;11.33;100.00
48652;BME280;34442;52.362;-1.302;2023-06-04T04:21:46;101203.13;;;11.34;100.00
48652;BME280;34442;52.362;-1.302;2023-06-04T04:24:26;101210.97;;;11.29;100.00
48652;BME280;34442;52.362;-1.302;2023-06-04T04:26:53;101206.06;;;11.18;100.00
48652;BME280;34442;52.362;-1.302;2023-06-04T04:29:22;101214.91;;;11.12;100.00
48652;BME280;34442;52.362;-1.302;2023-06-04T04:31:54;101204.31;;;11.10;100.00
48652;BME280;34442;52.362;-1.302;2023-06-04T04:34:25;101206.97;;;11.04;100.00
48652;BME280;34442;52.362;-1.302;2023-06-04T04:36:50;101192.22;;;11.00;100.00
48652;BME280;34442;52.362;-1.302;2023-06-04T04:39:23;101194.53;;;11.03;100.00
48652;BME280;34442;52.362;-1.302;2023-06-04T04:41:50;101201.13;;;11.00;100.00
48652;BME280;34442;52.362;-1.302;2023-06-04T04:44:16;101202.50;;;10.96;100.00
48652;BME280;34442;52.362;-1.302;2023-06-04T04:46:41;101195.59;;;10.87;100.00
48652;BME280;34442;52.362;-1.302;2023-06-04T04:49:07;101202.41;;;10.89;100.00
48652;BME280;34442;52.362;-1.302;2023-06-04T04:51:32;101206.97;;;10.89;100.00
48652;BME280;34442;52.362;-1.302;2023-06-04T04:53:58;101207.34;;;10.86;100.00
48652;BME280;34442;52.362;-1.302;2023-06-04T04:56:27;101201.13;;;10.85;100.00
48652;BME280;34442;52.362;-1.302;2023-06-04T04:58:53;101199.72;;;10.89;100.00
48652;BME280;34442;52.362;-1.302;2023-06-04T05:01:19;101207.53;;;10.84;100.00
48652;BME280;34442;52.362;-1.302;2023-06-04T05:03:45;101206.50;;;10.85;100.00
48652;BME280;34442;52.362;-1.302;2023-06-04T05:06:11;101211.06;;;10.85;100.00
48652;BME280;34442;52.362;-1.302;2023-06-04T05:08:36;101207.91;;;10.81;100.00
48652;BME280;34442;52.362;-1.302;2023-06-04T05:11:02;101202.47;;;10.60;100.00
48652;BME280;34442;52.362;-1.302;2023-06-04T05:13:28;101211.47;;;10.67;100.00
48652;BME280;34442;52.362;-1.302;2023-06-04T05:15:53;101209.50;;;10.61;100.00
48652;BME280;34442;52.362;-1.302;2023-06-04T05:18:19;101212.00;;;10.77;100.00
48652;BME280;34442;52.362;-1.302;2023-06-04T05:20:46;101212.91;;;10.84;100.00
48652;BME280;34442;52.362;-1.302;2023-06-04T05:23:12;101214.63;;;10.71;100.00
48652;BME280;34442;52.362;-1.302;2023-06-04T05:25:38;101218.41;;;10.76;100.00
48652;BME280;34442;52.362;-1.302;2023-06-04T05:28:03;101210.44;;;10.83;100.00
48652;BME280;34442;52.362;-1.302;2023-06-04T05:30:30;101212.81;;;10.78;100.00
48652;BME280;34442;52.362;-1.302;2023-06-04T05:32:56;101215.63;;;10.69;100.00
48652;BME280;34442;52.362;-1.302;2023-06-04T05:35:22;101219.06;;;10.78;100.00
48652;BME280;34442;52.362;-1.302;2023-06-04T05:37:47;101223.78;;;10.91;100.00
48652;BME280;34442;52.362;-1.302;2023-06-04T05:40:18;101227.28;;;10.91;100.00
48652;BME280;34442;52.362;-1.302;2023-06-04T05:42:44;101223.00;;;10.97;100.00
48652;BME280;34442;52.362;-1.302;2023-06-04T05:45:10;101235.53;;;11.05;100.00
48652;BME280;34442;52.362;-1.302;2023-06-04T05:47:35;101229.41;;;10.96;100.00
48652;BME280;34442;52.362;-1.302;2023-06-04T05:50:02;101232.19;;;11.03;100.00
48652;BME280;34442;52.362;-1.302;2023-06-04T05:52:27;101228.38;;;11.12;100.00
48652;BME280;34442;52.362;-1.302;2023-06-04T05:54:53;101228.03;;;11.00;100.00
48652;BME280;34442;52.362;-1.302;2023-06-04T05:57:19;101226.06;;;10.94;100.00
48652;BME280;34442;52.362;-1.302;2023-06-04T05:59:46;101233.09;;;11.10;100.00
48652;BME280;34442;52.362;-1.302;2023-06-04T06:02:11;101231.94;;;11.19;100.00
48652;BME280;34442;52.362;-1.302;2023-06-04T06:04:37;101235.31;;;11.21;100.00
48652;BME280;34442;52.362;-1.302;2023-06-04T06:07:03;101236.78;;;11.24;100.00
48652;BME280;34442;52.362;-1.302;2023-06-04T06:09:28;101234.41;;;11.35;100.00
48652;BME280;34442;52.362;-1.302;2023-06-04T06:11:54;101236.34;;;11.20;100.00
48652;BME280;34442;52.362;-1.302;2023-06-04T06:14:19;101235.38;;;11.28;100.00
48652;BME280;34442;52.362;-1.302;2023-06-04T06:16:45;101234.84;;;11.17;100.00
48652;BME280;34442;52.362;-1.302;2023-06-04T06:19:12;101234.47;;;11.21;100.00
48652;BME280;34442;52.362;-1.302;2023-06-04T06:21:38;101242.09;;;11.38;100.00
48652;BME280;34442;52.362;-1.302;2023-06-04T06:24:03;101229.09;;;11.21;100.00
48652;BME280;34442;52.362;-1.302;2023-06-04T06:26:29;101238.72;;;11.30;100.00
48652;BME280;34442;52.362;-1.302;2023-06-04T06:28:55;101240.72;;;11.42;100.00
48652;BME280;34442;52.362;-1.302;2023-06-04T06:31:21;101237.50;;;11.32;100.00
48652;BME280;34442;52.362;-1.302;2023-06-04T06:33:46;101236.44;;;11.48;100.00
48652;BME280;34442;52.362;-1.302;2023-06-04T06:36:12;101237.50;;;11.75;100.00
48652;BME280;34442;52.362;-1.302;2023-06-04T06:38:38;101238.16;;;11.56;100.00
48652;BME280;34442;52.362;-1.302;2023-06-04T06:41:03;101227.38;;;11.56;100.00
48652;BME280;34442;52.362;-1.302;2023-06-04T06:43:29;101240.22;;;11.54;100.00
48652;BME280;34442;52.362;-1.302;2023-06-04T06:45:55;101237.91;;;11.51;100.00
48652;BME280;34442;52.362;-1.302;2023-06-04T06:48:20;101237.31;;;11.55;100.00
48652;BME280;34442;52.362;-1.302;2023-06-04T06:50:46;101242.00;;;11.68;100.00
48652;BME280;34442;52.362;-1.302;2023-06-04T06:53:11;101234.88;;;11.82;100.00
48652;BME280;34442;52.362;-1.302;2023-06-04T06:55:36;101238.59;;;11.81;100.00
48652;BME280;34442;52.362;-1.302;2023-06-04T06:58:02;101233.31;;;11.87;100.00
48652;BME280;34442;52.362;-1.302;2023-06-04T07:00:27;101237.19;;;11.85;100.00
48652;BME280;34442;52.362;-1.302;2023-06-04T07:02:53;101232.88;;;12.12;100.00
48652;BME280;34442;52.362;-1.302;2023-06-04T07:05:19;101240.00;;;12.20;100.00
48652;BME280;34442;52.362;-1.302;2023-06-04T07:07:45;101238.28;;;12.12;100.00
48652;BME280;34442;52.362;-1.302;2023-06-04T07:10:12;101240.69;;;12.28;100.00
48652;BME280;34442;52.362;-1.302;2023-06-04T07:12:38;101244.94;;;12.44;100.00
48652;BME280;34442;52.362;-1.302;2023-06-04T07:15:06;101241.78;;;12.12;100.00
48652;BME280;34442;52.362;-1.302;2023-06-04T07:17:33;101263.28;;;12.27;100.00
48652;BME280;34442;52.362;-1.302;2023-06-04T07:19:59;101248.38;;;12.31;100.00
48652;BME280;34442;52.362;-1.302;2023-06-04T07:22:25;101255.91;;;12.42;100.00
48652;BME280;34442;52.362;-1.302;2023-06-04T07:24:51;101259.81;;;12.68;100.00
48652;BME280;34442;52.362;-1.302;2023-06-04T07:27:17;101253.44;;;12.76;100.00
48652;BME280;34442;52.362;-1.302;2023-06-04T07:29:43;101255.88;;;12.71;100.00
48652;BME280;34442;52.362;-1.302;2023-06-04T07:32:12;101256.69;;;12.64;100.00
48652;BME280;34442;52.362;-1.302;2023-06-04T07:34:38;101254.50;;;12.81;100.00
48652;BME280;34442;52.362;-1.302;2023-06-04T07:37:04;101257.75;;;12.70;100.00
48652;BME280;34442;52.362;-1.302;2023-06-04T07:39:30;101250.13;;;12.80;100.00
48652;BME280;34442;52.362;-1.302;2023-06-04T07:41:58;101251.22;;;12.93;100.00
48652;BME280;34442;52.362;-1.302;2023-06-04T07:44:24;101244.41;;;13.03;100.00
48652;BME280;34442;52.362;-1.302;2023-06-04T07:46:49;101257.53;;;13.13;100.00
48652;BME280;34442;52.362;-1.302;2023-06-04T07:49:15;101257.78;;;13.18;100.00
48652;BME280;34442;52.362;-1.302;2023-06-04T07:51:40;101245.84;;;12.99;100.00
48652;BME280;34442;52.362;-1.302;2023-06-04T07:54:06;101242.59;;;13.17;100.00
48652;BME280;34442;52.362;-1.302;2023-06-04T07:56:32;101247.59;;;13.20;100.00
48652;BME280;34442;52.362;-1.302;2023-06-04T07:58:57;101253.88;;;13.27;100.00
48652;BME280;34442;52.362;-1.302;2023-06-04T08:01:23;101248.16;;;13.02;100.00
48652;BME280;34442;52.362;-1.302;2023-06-04T08:03:49;101253.94;;;12.99;100.00
48652;BME280;34442;52.362;-1.302;2023-06-04T08:06:15;101260.66;;;13.16;100.00
48652;BME280;34442;52.362;-1.302;2023-06-04T08:08:44;101258.38;;;13.13;100.00
48652;BME280;34442;52.362;-1.302;2023-06-04T08:11:14;101252.66;;;13.36;100.00
48652;BME280;34442;52.362;-1.302;2023-06-04T08:13:40;101258.91;;;13.44;100.00
48652;BME280;34442;52.362;-1.302;2023-06-04T08:16:05;101260.19;;;13.54;100.00
48652;BME280;34442;52.362;-1.302;2023-06-04T08:18:31;101243.09;;;13.40;100.00
48652;BME280;34442;52.362;-1.302;2023-06-04T08:20:56;101245.22;;;13.52;100.00
48652;BME280;34442;52.362;-1.302;2023-06-04T08:23:22;101237.31;;;13.57;100.00
48652;BME280;34442;52.362;-1.302;2023-06-04T08:25:47;101244.81;;;13.61;100.00
48652;BME280;34442;52.362;-1.302;2023-06-04T08:28:14;101249.63;;;13.73;100.00
48652;BME280;34442;52.362;-1.302;2023-06-04T08:30:41;101244.44;;;13.84;100.00
48652;BME280;34442;52.362;-1.302;2023-06-04T08:33:06;101253.81;;;13.95;100.00
48652;BME280;34442;52.362;-1.302;2023-06-04T08:35:32;101249.00;;;13.97;100.00
48652;BME280;34442;52.362;-1.302;2023-06-04T08:37:57;101251.94;;;13.96;100.00
48652;BME280;34442;52.362;-1.302;2023-06-04T08:40:24;101250.69;;;14.11;100.00
48652;BME280;34442;52.362;-1.302;2023-06-04T08:42:50;101254.41;;;13.97;100.00
48652;BME280;34442;52.362;-1.302;2023-06-04T08:45:20;101243.59;;;14.30;100.00
48652;BME280;34442;52.362;-1.302;2023-06-04T08:47:49;101242.53;;;14.58;100.00
48652;BME280;34442;52.362;-1.302;2023-06-04T08:50:23;101236.72;;;14.54;100.00
48652;BME280;34442;52.362;-1.302;2023-06-04T08:52:53;101248.59;;;14.53;100.00
48652;BME280;34442;52.362;-1.302;2023-06-04T08:55:22;101242.91;;;14.68;100.00
48652;BME280;34442;52.362;-1.302;2023-06-04T08:57:50;101242.91;;;14.68;100.00
48652;BME280;34442;52.362;-1.302;2023-06-04T09:00:17;101242.03;;;14.94;100.00
48652;BME280;34442;52.362;-1.302;2023-06-04T09:02:43;101240.56;;;14.98;100.00
48652;BME280;34442;52.362;-1.302;2023-06-04T09:05:10;101252.25;;;14.85;100.00
48652;BME280;34442;52.362;-1.302;2023-06-04T09:07:45;101239.31;;;14.87;100.00
48652;BME280;34442;52.362;-1.302;2023-06-04T09:10:12;101244.03;;;15.05;100.00
48652;BME280;34442;52.362;-1.302;2023-06-04T09:12:43;101239.19;;;15.14;100.00
48652;BME280;34442;52.362;-1.302;2023-06-04T09:15:12;101242.28;;;15.62;100.00
48652;BME280;34442;52.362;-1.302;2023-06-04T09:17:37;101244.00;;;15.57;100.00
48652;BME280;34442;52.362;-1.302;2023-06-04T09:20:03;101239.56;;;15.69;99.78
48652;BME280;34442;52.362;-1.302;2023-06-04T09:22:36;101241.38;;;15.75;93.15
48652;BME280;34442;52.362;-1.302;2023-06-04T09:25:04;101233.38;;;15.87;96.34
48652;BME280;34442;52.362;-1.302;2023-06-04T09:27:38;101237.94;;;16.36;92.85
48652;BME280;34442;52.362;-1.302;2023-06-04T09:30:07;101228.97;;;16.18;94.81
48652;BME280;34442;52.362;-1.302;2023-06-04T09:32:34;101235.59;;;16.22;95.85
48652;BME280;34442;52.362;-1.302;2023-06-04T09:35:12;101237.97;;;16.11;93.29
48652;BME280;34442;52.362;-1.302;2023-06-04T09:37:40;101242.53;;;16.18;95.52
48652;BME280;34442;52.362;-1.302;2023-06-04T09:40:07;101238.50;;;16.20;95.22
48652;BME280;34442;52.362;-1.302;2023-06-04T09:45:09;101229.56;;;15.95;95.43
48652;BME280;34442;52.362;-1.302;2023-06-04T09:47:42;101230.47;;;16.13;92.83
48652;BME280;34442;52.362;-1.302;2023-06-04T09:50:08;101236.38;;;16.04;94.74
48652;BME280;34442;52.362;-1.302;2023-06-04T09:52:33;101235.50;;;16.10;94.32
48652;BME280;34442;52.362;-1.302;2023-06-04T09:54:59;101242.84;;;16.28;93.31
48652;BME280;34442;52.362;-1.302;2023-06-04T09:57:25;101237.50;;;16.21;92.83
48652;BME280;34442;52.362;-1.302;2023-06-04T09:59:53;101237.81;;;16.50;90.92
48652;BME280;34442;52.362;-1.302;2023-06-04T10:02:20;101253.41;;;16.36;91.44
48652;BME280;34442;52.362;-1.302;2023-06-04T10:04:56;101249.03;;;16.35;88.94
48652;BME280;34442;52.362;-1.302;2023-06-04T10:07:29;101249.53;;;16.69;89.61
48652;BME280;34442;52.362;-1.302;2023-06-04T10:09:55;101243.28;;;16.86;87.96
48652;BME280;34442;52.362;-1.302;2023-06-04T10:12:25;101240.63;;;16.98;87.46
48652;BME280;34442;52.362;-1.302;2023-06-04T10:14:54;101232.63;;;17.03;87.98
48652;BME280;34442;52.362;-1.302;2023-06-04T10:17:23;101246.66;;;17.19;87.70
48652;BME280;34442;52.362;-1.302;2023-06-04T10:19:50;101241.84;;;17.02;87.93
48652;BME280;34442;52.362;-1.302;2023-06-04T10:22:19;101247.50;;;16.82;87.84
48652;BME280;34442;52.362;-1.302;2023-06-04T10:24:44;101250.81;;;17.03;86.36
48652;BME280;34442;52.362;-1.302;2023-06-04T10:27:11;101257.09;;;16.85;87.00
48652;BME280;34442;52.362;-1.302;2023-06-04T10:29:38;101253.38;;;17.16;86.24
48652;BME280;34442;52.362;-1.302;2023-06-04T10:32:04;101253.22;;;17.29;86.37
48652;BME280;34442;52.362;-1.302;2023-06-04T10:34:30;101255.25;;;17.16;86.04
48652;BME280;34442;52.362;-1.302;2023-06-04T10:36:56;101248.03;;;17.40;85.17
48652;BME280;34442;52.362;-1.302;2023-06-04T10:39:26;101266.28;;;17.51;83.67
48652;BME280;34442;52.362;-1.302;2023-06-04T10:42:02;101254.09;;;17.42;82.86
48652;BME280;34442;52.362;-1.302;2023-06-04T10:44:29;101252.94;;;17.49;85.51
48652;BME280;34442;52.362;-1.302;2023-06-04T10:46:55;101258.22;;;17.44;85.60
48652;BME280;34442;52.362;-1.302;2023-06-04T10:49:30;101258.44;;;17.73;82.59
48652;BME280;34442;52.362;-1.302;2023-06-04T10:51:56;101258.50;;;17.54;85.63
48652;BME280;34442;52.362;-1.302;2023-06-04T10:54:28;101259.84;;;17.64;84.78
48652;BME280;34442;52.362;-1.302;2023-06-04T10:56:54;101251.25;;;17.36;85.52
48652;BME280;34442;52.362;-1.302;2023-06-04T10:59:21;101260.13;;;17.44;83.90
48652;BME280;34442;52.362;-1.302;2023-06-04T11:01:47;101256.69;;;17.48;83.69
48652;BME280;34442;52.362;-1.302;2023-06-04T11:04:23;101255.03;;;17.47;79.84
48652;BME280;34442;52.362;-1.302;2023-06-04T11:07:00;101251.25;;;17.48;79.89
48652;BME280;34442;52.362;-1.302;2023-06-04T11:09:30;101250.09;;;17.74;82.85
48652;BME280;34442;52.362;-1.302;2023-06-04T11:11:59;101260.78;;;17.57;82.63
48652;BME280;34442;52.362;-1.302;2023-06-04T11:14:25;101245.03;;;17.59;81.76
48652;BME280;34442;52.362;-1.302;2023-06-04T11:16:50;101251.56;;;18.12;79.89
48652;BME280;34442;52.362;-1.302;2023-06-04T11:19:16;101250.03;;;18.04;79.61
48652;BME280;34442;52.362;-1.302;2023-06-04T11:21:41;101263.72;;;17.86;80.40
48652;BME280;34442;52.362;-1.302;2023-06-04T11:24:07;101259.13;;;17.98;79.98
48652;BME280;34442;52.362;-1.302;2023-06-04T11:26:34;101256.53;;;18.03;79.77
48652;BME280;34442;52.362;-1.302;2023-06-04T11:29:00;101256.97;;;17.89;80.27
48652;BME280;34442;52.362;-1.302;2023-06-04T11:31:26;101248.06;;;17.81;80.48
48652;BME280;34442;52.362;-1.302;2023-06-04T11:33:52;101247.69;;;18.20;79.48
48652;BME280;34442;52.362;-1.302;2023-06-04T11:36:27;101255.56;;;17.98;76.63
48652;BME280;34442;52.362;-1.302;2023-06-04T11:38:56;101253.69;;;18.10;77.45
48652;BME280;34442;52.362;-1.302;2023-06-04T11:41:27;101246.38;;;18.34;78.24
48652;BME280;34442;52.362;-1.302;2023-06-04T11:43:55;101251.09;;;18.15;78.76
48652;BME280;34442;52.362;-1.302;2023-06-04T11:46:22;101240.94;;;18.10;78.68
48652;BME280;34442;52.362;-1.302;2023-06-04T11:48:50;101247.78;;;18.13;76.66
48652;BME280;34442;52.362;-1.302;2023-06-04T11:51:16;101250.59;;;17.83;79.70
48652;BME280;34442;52.362;-1.302;2023-06-04T11:53:41;101243.88;;;18.09;78.25
48652;BME280;34442;52.362;-1.302;2023-06-04T11:56:07;101241.63;;;18.29;77.96
48652;BME280;34442;52.362;-1.302;2023-06-04T11:58:33;101240.56;;;18.42;77.54
48652;BME280;34442;52.362;-1.302;2023-06-04T12:00:59;101232.19;;;18.32;76.99
48652;BME280;34442;52.362;-1.302;2023-06-04T12:03:45;101232.53;;;18.35;73.63
48652;BME280;34442;52.362;-1.302;2023-06-04T12:06:15;101226.13;;;18.42;77.05
48652;BME280;34442;52.362;-1.302;2023-06-04T12:08:51;101229.22;;;18.33;73.55
48652;BME280;34442;52.362;-1.302;2023-06-04T12:11:31;101226.63;;;18.15;74.55
48652;BME280;34442;52.362;-1.302;2023-06-04T12:13:59;101218.78;;;18.54;75.99
48652;BME280;34442;52.362;-1.302;2023-06-04T12:16:25;101221.72;;;18.64;75.79
48652;BME280;34442;52.362;-1.302;2023-06-04T12:18:51;101222.56;;;18.41;76.04
48652;BME280;34442;52.362;-1.302;2023-06-04T12:21:24;101211.44;;;18.31;75.13
48652;BME280;34442;52.362;-1.302;2023-06-04T12:24:12;101225.75;;;18.38;72.77
48652;BME280;34442;52.362;-1.302;2023-06-04T12:26:39;101227.78;;;18.43;75.63
48652;BME280;34442;52.362;-1.302;2023-06-04T12:29:16;101223.19;;;18.20;75.37
48652;BME280;34442;52.362;-1.302;2023-06-04T12:31:44;101219.84;;;18.18;76.92
48652;BME280;34442;52.362;-1.302;2023-06-04T12:34:11;101221.03;;;18.10;76.66
48652;BME280;34442;52.362;-1.302;2023-06-04T12:36:37;101221.66;;;18.24;76.02